sensor_id;sensor_type;location;lat;lon;timestamp;P1;durP1;ratioP1;P2;durP2;ratioP2
64401;SDS011;50724;42.376;23.768;2023-04-06T00:00:09;11.98;;;5.25;;
64401;SDS011;50724;42.376;23.768;2023-04-06T00:03:10;10.43;;;5.25;;
64401;SDS011;50724;42.376;23.768;2023-04-06T00:06:11;14.43;;;7.40;;
64401;SDS011;50724;42.376;23.768;2023-04-06T00:09:11;12.40;;;4.75;;
64401;SDS011;50724;42.376;23.768;2023-04-06T00:12:12;7.70;;;4.20;;
64401;SDS011;50724;42.376;23.768;2023-04-06T00:15:12;8.32;;;4.93;;
64401;SDS011;50724;42.376;23.768;2023-04-06T00:18:13;9.70;;;4.32;;
64401;SDS011;50724;42.376;23.768;2023-04-06T00:21:13;9.45;;;4.72;;
64401;SDS011;50724;42.376;23.768;2023-04-06T00:24:15;10.20;;;4.70;;
64401;SDS011;50724;42.376;23.768;2023-04-06T00:27:15;10.85;;;5.13;;
64401;SDS011;50724;42.376;23.768;2023-04-06T00:30:16;7.75;;;3.72;;
64401;SDS011;50724;42.376;23.768;2023-04-06T00:33:16;9.32;;;4.72;;
64401;SDS011;50724;42.376;23.768;2023-04-06T00:36:17;8.82;;;4.18;;
64401;SDS011;50724;42.376;23.768;2023-04-06T00:39:17;8.05;;;4.50;;
64401;SDS011;50724;42.376;23.768;2023-04-06T00:42:18;10.02;;;4.93;;
64401;SDS011;50724;42.376;23.768;2023-04-06T00:45:25;7.63;;;4.90;;
64401;SDS011;50724;42.376;23.768;2023-04-06T00:48:25;6.57;;;3.53;;
64401;SDS011;50724;42.376;23.768;2023-04-06T00:51:26;7.35;;;3.67;;
64401;SDS011;50724;42.376;23.768;2023-04-06T00:54:28;6.18;;;3.42;;
64401;SDS011;50724;42.376;23.768;2023-04-06T00:57:29;9.43;;;4.80;;
64401;SDS011;50724;42.376;23.768;2023-04-06T01:00:31;10.15;;;4.43;;
64401;SDS011;50724;42.376;23.768;2023-04-06T01:03:32;8.90;;;4.38;;
64401;SDS011;50724;42.376;23.768;2023-04-06T01:06:32;11.02;;;5.55;;
64401;SDS011;50724;42.376;23.768;2023-04-06T01:09:33;11.90;;;5.95;;
64401;SDS011;50724;42.376;23.768;2023-04-06T01:12:33;8.13;;;3.40;;
64401;SDS011;50724;42.376;23.768;2023-04-06T01:15:34;10.70;;;4.30;;
64401;SDS011;50724;42.376;23.768;2023-04-06T01:18:35;10.52;;;4.88;;
64401;SDS011;50724;42.376;23.768;2023-04-06T01:21:38;12.07;;;5.20;;
64401;SDS011;50724;42.376;23.768;2023-04-06T01:24:39;9.35;;;3.80;;
64401;SDS011;50724;42.376;23.768;2023-04-06T01:27:39;11.80;;;5.30;;
64401;SDS011;50724;42.376;23.768;2023-04-06T01:30:40;7.45;;;3.90;;
64401;SDS011;50724;42.376;23.768;2023-04-06T01:33:43;9.90;;;4.72;;
64401;SDS011;50724;42.376;23.768;2023-04-06T01:36:44;11.10;;;4.55;;
64401;SDS011;50724;42.376;23.768;2023-04-06T01:39:44;12.10;;;4.45;;
64401;SDS011;50724;42.376;23.768;2023-04-06T01:42:45;9.88;;;4.63;;
64401;SDS011;50724;42.376;23.768;2023-04-06T01:45:45;6.30;;;3.30;;
64401;SDS011;50724;42.376;23.768;2023-04-06T01:48:46;10.07;;;4.38;;
64401;SDS011;50724;42.376;23.768;2023-04-06T01:51:46;8.63;;;4.47;;
64401;SDS011;50724;42.376;23.768;2023-04-06T01:54:47;7.72;;;4.13;;
64401;SDS011;50724;42.376;23.768;2023-04-06T01:57:47;11.15;;;4.75;;
64401;SDS011;50724;42.376;23.768;2023-04-06T02:00:47;10.98;;;4.05;;
64401;SDS011;50724;42.376;23.768;2023-04-06T02:03:48;8.80;;;4.05;;
64401;SDS011;50724;42.376;23.768;2023-04-06T02:06:48;7.43;;;3.70;;
64401;SDS011;50724;42.376;23.768;2023-04-06T02:09:50;6.22;;;3.13;;
64401;SDS011;50724;42.376;23.768;2023-04-06T02:12:53;9.15;;;4.57;;
64401;SDS011;50724;42.376;23.768;2023-04-06T02:15:54;10.68;;;4.22;;
64401;SDS011;50724;42.376;23.768;2023-04-06T02:18:55;8.85;;;3.75;;
64401;SDS011;50724;42.376;23.768;2023-04-06T02:21:55;9.57;;;4.47;;
64401;SDS011;50724;42.376;23.768;2023-04-06T02:24:56;8.98;;;3.28;;
64401;SDS011;50724;42.376;23.768;2023-04-06T02:27:56;8.70;;;4.38;;
64401;SDS011;50724;42.376;23.768;2023-04-06T02:30:56;7.63;;;3.70;;
64401;SDS011;50724;42.376;23.768;2023-04-06T02:33:57;8.63;;;3.78;;
64401;SDS011;50724;42.376;23.768;2023-04-06T02:36:57;7.75;;;4.15;;
64401;SDS011;50724;42.376;23.768;2023-04-06T02:39:58;8.90;;;3.55;;
64401;SDS011;50724;42.376;23.768;2023-04-06T02:42:58;10.32;;;4.43;;
64401;SDS011;50724;42.376;23.768;2023-04-06T02:45:59;11.13;;;5.20;;
64401;SDS011;50724;42.376;23.768;2023-04-06T02:48:59;8.57;;;4.53;;
64401;SDS011;50724;42.376;23.768;2023-04-06T02:52:00;6.32;;;3.08;;
64401;SDS011;50724;42.376;23.768;2023-04-06T02:55:00;8.95;;;4.07;;
64401;SDS011;50724;42.376;23.768;2023-04-06T02:58:01;9.15;;;4.40;;
64401;SDS011;50724;42.376;23.768;2023-04-06T03:01:01;8.07;;;3.75;;
64401;SDS011;50724;42.376;23.768;2023-04-06T03:04:02;8.93;;;4.63;;
64401;SDS011;50724;42.376;23.768;2023-04-06T03:07:03;9.85;;;3.47;;
64401;SDS011;50724;42.376;23.768;2023-04-06T03:10:03;9.35;;;4.05;;
64401;SDS011;50724;42.376;23.768;2023-04-06T03:13:04;7.80;;;3.58;;
64401;SDS011;50724;42.376;23.768;2023-04-06T03:16:05;8.05;;;3.92;;
64401;SDS011;50724;42.376;23.768;2023-04-06T03:19:06;11.85;;;4.88;;
64401;SDS011;50724;42.376;23.768;2023-04-06T03:22:06;10.02;;;4.50;;
64401;SDS011;50724;42.376;23.768;2023-04-06T03:25:06;8.27;;;3.08;;
64401;SDS011;50724;42.376;23.768;2023-04-06T03:28:07;6.70;;;3.47;;
64401;SDS011;50724;42.376;23.768;2023-04-06T03:31:08;7.22;;;3.88;;
64401;SDS011;50724;42.376;23.768;2023-04-06T03:34:08;9.32;;;4.63;;
64401;SDS011;50724;42.376;23.768;2023-04-06T03:37:08;8.50;;;3.95;;
64401;SDS011;50724;42.376;23.768;2023-04-06T03:40:17;7.03;;;3.60;;
64401;SDS011;50724;42.376;23.768;2023-04-06T03:43:18;7.65;;;3.80;;
64401;SDS011;50724;42.376;23.768;2023-04-06T03:46:18;8.02;;;4.05;;
64401;SDS011;50724;42.376;23.768;2023-04-06T03:49:19;7.13;;;3.75;;
64401;SDS011;50724;42.376;23.768;2023-04-06T03:52:19;6.95;;;3.38;;
64401;SDS011;50724;42.376;23.768;2023-04-06T03:55:20;8.48;;;4.22;;
64401;SDS011;50724;42.376;23.768;2023-04-06T03:58:20;6.03;;;3.25;;
64401;SDS011;50724;42.376;23.768;2023-04-06T04:01:21;7.03;;;4.18;;
64401;SDS011;50724;42.376;23.768;2023-04-06T04:04:21;9.10;;;3.90;;
64401;SDS011;50724;42.376;23.768;2023-04-06T04:07:22;5.80;;;3.00;;
64401;SDS011;50724;42.376;23.768;2023-04-06T04:10:22;9.65;;;4.95;;
64401;SDS011;50724;42.376;23.768;2023-04-06T04:13:23;8.07;;;4.20;;
64401;SDS011;50724;42.376;23.768;2023-04-06T04:16:23;7.90;;;3.40;;
64401;SDS011;50724;42.376;23.768;2023-04-06T04:19:23;9.32;;;4.53;;
64401;SDS011;50724;42.376;23.768;2023-04-06T04:22:24;9.18;;;3.80;;
64401;SDS011;50724;42.376;23.768;2023-04-06T04:25:24;9.30;;;4.57;;
64401;SDS011;50724;42.376;23.768;2023-04-06T04:28:25;7.22;;;3.03;;
64401;SDS011;50724;42.376;23.768;2023-04-06T04:31:25;7.93;;;3.47;;
64401;SDS011;50724;42.376;23.768;2023-04-06T04:37:36;4.72;;;2.50;;
64401;SDS011;50724;42.376;23.768;2023-04-06T04:40:36;8.73;;;4.32;;
64401;SDS011;50724;42.376;23.768;2023-04-06T04:43:36;8.25;;;3.83;;
64401;SDS011;50724;42.376;23.768;2023-04-06T04:46:38;7.82;;;3.80;;
64401;SDS011;50724;42.376;23.768;2023-04-06T04:49:39;6.53;;;3.30;;
64401;SDS011;50724;42.376;23.768;2023-04-06T04:52:39;7.85;;;4.25;;
64401;SDS011;50724;42.376;23.768;2023-04-06T04:55:40;4.60;;;2.28;;
64401;SDS011;50724;42.376;23.768;2023-04-06T04:58:43;8.25;;;4.05;;
64401;SDS011;50724;42.376;23.768;2023-04-06T05:01:44;8.25;;;3.53;;
64401;SDS011;50724;42.376;23.768;2023-04-06T05:04:44;10.18;;;3.72;;
64401;SDS011;50724;42.376;23.768;2023-04-06T05:07:45;7.22;;;3.50;;
64401;SDS011;50724;42.376;23.768;2023-04-06T05:10:46;7.75;;;4.03;;
64401;SDS011;50724;42.376;23.768;2023-04-06T05:13:48;8.05;;;4.13;;
64401;SDS011;50724;42.376;23.768;2023-04-06T05:16:48;8.65;;;4.30;;
64401;SDS011;50724;42.376;23.768;2023-04-06T05:19:49;7.10;;;3.78;;
64401;SDS011;50724;42.376;23.768;2023-04-06T05:22:49;7.35;;;3.40;;
64401;SDS011;50724;42.376;23.768;2023-04-06T05:25:50;9.10;;;4.07;;
64401;SDS011;50724;42.376;23.768;2023-04-06T05:28:50;9.18;;;3.55;;
64401;SDS011;50724;42.376;23.768;2023-04-06T05:31:51;6.80;;;3.15;;
64401;SDS011;50724;42.376;23.768;2023-04-06T05:34:52;6.60;;;3.20;;
64401;SDS011;50724;42.376;23.768;2023-04-06T05:37:52;7.35;;;3.38;;
64401;SDS011;50724;42.376;23.768;2023-04-06T05:40:53;6.80;;;3.80;;
64401;SDS011;50724;42.376;23.768;2023-04-06T05:43:53;7.70;;;3.50;;
64401;SDS011;50724;42.376;23.768;2023-04-06T05:46:54;4.95;;;2.63;;
64401;SDS011;50724;42.376;23.768;2023-04-06T05:49:54;7.47;;;3.53;;
64401;SDS011;50724;42.376;23.768;2023-04-06T05:52:55;6.43;;;3.25;;
64401;SDS011;50724;42.376;23.768;2023-04-06T05:55:56;7.45;;;3.72;;
64401;SDS011;50724;42.376;23.768;2023-04-06T05:58:56;7.55;;;3.35;;
64401;SDS011;50724;42.376;23.768;2023-04-06T06:01:57;5.90;;;2.80;;
64401;SDS011;50724;42.376;23.768;2023-04-06T06:04:57;9.38;;;3.67;;
64401;SDS011;50724;42.376;23.768;2023-04-06T06:07:58;9.60;;;3.78;;
64401;SDS011;50724;42.376;23.768;2023-04-06T06:10:58;9.48;;;3.13;;
64401;SDS011;50724;42.376;23.768;2023-04-06T06:13:59;6.20;;;2.90;;
64401;SDS011;50724;42.376;23.768;2023-04-06T06:16:59;6.05;;;3.10;;
64401;SDS011;50724;42.376;23.768;2023-04-06T06:20:00;7.40;;;3.50;;
64401;SDS011;50724;42.376;23.768;2023-04-06T06:23:00;6.50;;;3.00;;
64401;SDS011;50724;42.376;23.768;2023-04-06T06:26:01;7.85;;;3.92;;
64401;SDS011;50724;42.376;23.768;2023-04-06T06:29:01;6.97;;;3.00;;
64401;SDS011;50724;42.376;23.768;2023-04-06T06:32:02;8.23;;;2.92;;
64401;SDS011;50724;42.376;23.768;2023-04-06T06:35:02;6.63;;;2.88;;
64401;SDS011;50724;42.376;23.768;2023-04-06T06:38:03;6.57;;;3.08;;
64401;SDS011;50724;42.376;23.768;2023-04-06T06:41:03;7.18;;;3.03;;
64401;SDS011;50724;42.376;23.768;2023-04-06T06:44:04;7.93;;;4.07;;
64401;SDS011;50724;42.376;23.768;2023-04-06T06:47:05;5.47;;;2.45;;
64401;SDS011;50724;42.376;23.768;2023-04-06T06:50:06;6.03;;;2.60;;
64401;SDS011;50724;42.376;23.768;2023-04-06T06:53:06;7.68;;;2.30;;
64401;SDS011;50724;42.376;23.768;2023-04-06T06:56:07;8.45;;;2.78;;
64401;SDS011;50724;42.376;23.768;2023-04-06T06:59:07;6.10;;;2.83;;
64401;SDS011;50724;42.376;23.768;2023-04-06T07:02:08;8.55;;;2.45;;
64401;SDS011;50724;42.376;23.768;2023-04-06T07:05:08;5.75;;;2.75;;
64401;SDS011;50724;42.376;23.768;2023-04-06T07:08:09;5.40;;;2.55;;
64401;SDS011;50724;42.376;23.768;2023-04-06T07:11:10;5.88;;;2.60;;
64401;SDS011;50724;42.376;23.768;2023-04-06T07:14:11;6.20;;;2.88;;
64401;SDS011;50724;42.376;23.768;2023-04-06T07:17:12;5.05;;;2.40;;
64401;SDS011;50724;42.376;23.768;2023-04-06T07:20:12;4.97;;;2.80;;
64401;SDS011;50724;42.376;23.768;2023-04-06T07:23:13;5.57;;;2.50;;
64401;SDS011;50724;42.376;23.768;2023-04-06T07:26:14;5.53;;;2.92;;
64401;SDS011;50724;42.376;23.768;2023-04-06T07:29:14;6.65;;;3.10;;
64401;SDS011;50724;42.376;23.768;2023-04-06T07:32:15;5.72;;;3.05;;
64401;SDS011;50724;42.376;23.768;2023-04-06T07:35:15;4.90;;;2.25;;
64401;SDS011;50724;42.376;23.768;2023-04-06T07:38:16;6.15;;;2.80;;
64401;SDS011;50724;42.376;23.768;2023-04-06T07:41:16;6.30;;;3.53;;
64401;SDS011;50724;42.376;23.768;2023-04-06T07:44:17;8.60;;;2.95;;
64401;SDS011;50724;42.376;23.768;2023-04-06T07:47:17;6.30;;;2.80;;
64401;SDS011;50724;42.376;23.768;2023-04-06T07:50:18;7.60;;;3.45;;
64401;SDS011;50724;42.376;23.768;2023-04-06T07:53:19;6.28;;;3.22;;
64401;SDS011;50724;42.376;23.768;2023-04-06T07:56:19;6.35;;;3.25;;
64401;SDS011;50724;42.376;23.768;2023-04-06T07:59:20;6.20;;;3.13;;
64401;SDS011;50724;42.376;23.768;2023-04-06T08:02:21;6.07;;;3.55;;
64401;SDS011;50724;42.376;23.768;2023-04-06T08:05:22;8.13;;;3.22;;
64401;SDS011;50724;42.376;23.768;2023-04-06T08:08:22;8.52;;;3.50;;
64401;SDS011;50724;42.376;23.768;2023-04-06T08:11:23;6.30;;;3.70;;
64401;SDS011;50724;42.376;23.768;2023-04-06T08:14:23;6.70;;;3.33;;
64401;SDS011;50724;42.376;23.768;2023-04-06T08:17:24;5.47;;;2.95;;
64401;SDS011;50724;42.376;23.768;2023-04-06T08:20:25;9.40;;;3.33;;
64401;SDS011;50724;42.376;23.768;2023-04-06T08:35:56;7.00;;;3.22;;
64401;SDS011;50724;42.376;23.768;2023-04-06T08:38:57;6.22;;;3.15;;
64401;SDS011;50724;42.376;23.768;2023-04-06T08:41:59;7.68;;;3.22;;
64401;SDS011;50724;42.376;23.768;2023-04-06T08:45:02;6.20;;;3.05;;
64401;SDS011;50724;42.376;23.768;2023-04-06T08:48:03;7.28;;;3.00;;
64401;SDS011;50724;42.376;23.768;2023-04-06T08:54:07;6.50;;;3.42;;
64401;SDS011;50724;42.376;23.768;2023-04-06T08:57:08;8.25;;;3.88;;
64401;SDS011;50724;42.376;23.768;2023-04-06T09:00:10;7.50;;;3.35;;
64401;SDS011;50724;42.376;23.768;2023-04-06T09:03:11;5.72;;;4.03;;
64401;SDS011;50724;42.376;23.768;2023-04-06T09:06:13;4.82;;;2.80;;
64401;SDS011;50724;42.376;23.768;2023-04-06T09:09:13;5.18;;;2.90;;
64401;SDS011;50724;42.376;23.768;2023-04-06T09:12:24;8.00;;;3.10;;
64401;SDS011;50724;42.376;23.768;2023-04-06T09:15:26;6.85;;;2.95;;
64401;SDS011;50724;42.376;23.768;2023-04-06T09:18:30;6.90;;;3.17;;
64401;SDS011;50724;42.376;23.768;2023-04-06T09:21:32;8.07;;;3.45;;
64401;SDS011;50724;42.376;23.768;2023-04-06T09:24:39;6.78;;;3.30;;
64401;SDS011;50724;42.376;23.768;2023-04-06T09:27:41;8.55;;;3.53;;
64401;SDS011;50724;42.376;23.768;2023-04-06T09:30:49;6.10;;;3.10;;
64401;SDS011;50724;42.376;23.768;2023-04-06T09:33:50;7.13;;;3.50;;
64401;SDS011;50724;42.376;23.768;2023-04-06T09:36:52;8.55;;;4.00;;
64401;SDS011;50724;42.376;23.768;2023-04-06T09:40:01;5.97;;;3.22;;
64401;SDS011;50724;42.376;23.768;2023-04-06T09:43:03;8.45;;;3.13;;
64401;SDS011;50724;42.376;23.768;2023-04-06T09:46:06;4.78;;;2.47;;
64401;SDS011;50724;42.376;23.768;2023-04-06T09:49:07;6.85;;;3.08;;
64401;SDS011;50724;42.376;23.768;2023-04-06T09:52:17;7.47;;;4.15;;
64401;SDS011;50724;42.376;23.768;2023-04-06T09:55:23;5.95;;;2.95;;
64401;SDS011;50724;42.376;23.768;2023-04-06T09:58:28;6.68;;;3.78;;
64401;SDS011;50724;42.376;23.768;2023-04-06T10:01:36;6.90;;;2.70;;
64401;SDS011;50724;42.376;23.768;2023-04-06T10:04:43;8.80;;;4.20;;
64401;SDS011;50724;42.376;23.768;2023-04-06T10:07:50;7.40;;;3.22;;
64401;SDS011;50724;42.376;23.768;2023-04-06T10:10:54;4.13;;;2.35;;
64401;SDS011;50724;42.376;23.768;2023-04-06T10:13:55;5.97;;;2.97;;
64401;SDS011;50724;42.376;23.768;2023-04-06T10:16:56;4.55;;;2.40;;
64401;SDS011;50724;42.376;23.768;2023-04-06T10:20:21;7.03;;;3.53;;
64401;SDS011;50724;42.376;23.768;2023-04-06T10:23:24;6.97;;;3.78;;
64401;SDS011;50724;42.376;23.768;2023-04-06T10:26:31;6.50;;;3.30;;
64401;SDS011;50724;42.376;23.768;2023-04-06T10:29:44;5.85;;;3.58;;
64401;SDS011;50724;42.376;23.768;2023-04-06T10:32:46;6.65;;;3.33;;
64401;SDS011;50724;42.376;23.768;2023-04-06T10:35:47;5.50;;;2.75;;
64401;SDS011;50724;42.376;23.768;2023-04-06T10:38:53;5.93;;;2.85;;
64401;SDS011;50724;42.376;23.768;2023-04-06T10:41:58;5.10;;;2.47;;
64401;SDS011;50724;42.376;23.768;2023-04-06T10:45:07;5.55;;;3.08;;
64401;SDS011;50724;42.376;23.768;2023-04-06T10:48:18;7.00;;;3.42;;
64401;SDS011;50724;42.376;23.768;2023-04-06T10:51:19;6.38;;;3.20;;
64401;SDS011;50724;42.376;23.768;2023-04-06T10:54:26;5.30;;;3.00;;
64401;SDS011;50724;42.376;23.768;2023-04-06T10:57:28;8.02;;;3.53;;
64401;SDS011;50724;42.376;23.768;2023-04-06T11:00:30;8.40;;;4.00;;
64401;SDS011;50724;42.376;23.768;2023-04-06T11:03:31;6.30;;;3.38;;
64401;SDS011;50724;42.376;23.768;2023-04-06T11:06:32;9.40;;;3.90;;
64401;SDS011;50724;42.376;23.768;2023-04-06T11:09:33;8.73;;;4.57;;
64401;SDS011;50724;42.376;23.768;2023-04-06T11:12:36;7.63;;;3.55;;
64401;SDS011;50724;42.376;23.768;2023-04-06T11:15:36;9.40;;;5.38;;
64401;SDS011;50724;42.376;23.768;2023-04-06T11:18:37;13.75;;;5.68;;
64401;SDS011;50724;42.376;23.768;2023-04-06T11:21:41;7.60;;;4.38;;
64401;SDS011;50724;42.376;23.768;2023-04-06T11:24:43;7.63;;;3.83;;
64401;SDS011;50724;42.376;23.768;2023-04-06T11:27:44;10.63;;;5.28;;
64401;SDS011;50724;42.376;23.768;2023-04-06T11:30:46;9.27;;;5.57;;
64401;SDS011;50724;42.376;23.768;2023-04-06T11:33:47;12.00;;;6.20;;
64401;SDS011;50724;42.376;23.768;2023-04-06T11:36:57;8.32;;;3.50;;
64401;SDS011;50724;42.376;23.768;2023-04-06T11:39:59;12.57;;;6.15;;
64401;SDS011;50724;42.376;23.768;2023-04-06T11:43:00;11.02;;;5.85;;
64401;SDS011;50724;42.376;23.768;2023-04-06T11:46:01;10.07;;;5.40;;
64401;SDS011;50724;42.376;23.768;2023-04-06T11:49:16;10.38;;;4.60;;
64401;SDS011;50724;42.376;23.768;2023-04-06T11:52:21;10.30;;;5.03;;
64401;SDS011;50724;42.376;23.768;2023-04-06T11:55:23;11.02;;;4.63;;
64401;SDS011;50724;42.376;23.768;2023-04-06T11:58:24;10.00;;;4.80;;
64401;SDS011;50724;42.376;23.768;2023-04-06T12:01:24;8.70;;;4.10;;
64401;SDS011;50724;42.376;23.768;2023-04-06T12:04:26;11.55;;;5.38;;
64401;SDS011;50724;42.376;23.768;2023-04-06T12:07:26;5.40;;;3.05;;
64401;SDS011;50724;42.376;23.768;2023-04-06T12:10:29;7.95;;;3.78;;
64401;SDS011;50724;42.376;23.768;2023-04-06T12:13:30;7.60;;;3.80;;
64401;SDS011;50724;42.376;23.768;2023-04-06T12:16:30;7.57;;;4.28;;
64401;SDS011;50724;42.376;23.768;2023-04-06T12:19:31;11.15;;;4.80;;
64401;SDS011;50724;42.376;23.768;2023-04-06T12:22:32;9.35;;;4.90;;
64401;SDS011;50724;42.376;23.768;2023-04-06T12:25:32;12.18;;;4.80;;
64401;SDS011;50724;42.376;23.768;2023-04-06T12:28:32;9.57;;;5.03;;
64401;SDS011;50724;42.376;23.768;2023-04-06T12:31:36;9.02;;;4.85;;
64401;SDS011;50724;42.376;23.768;2023-04-06T12:34:38;7.72;;;4.68;;
64401;SDS011;50724;42.376;23.768;2023-04-06T12:37:48;10.02;;;4.60;;
64401;SDS011;50724;42.376;23.768;2023-04-06T12:40:48;9.98;;;5.70;;
64401;SDS011;50724;42.376;23.768;2023-04-06T12:43:49;10.55;;;5.05;;
64401;SDS011;50724;42.376;23.768;2023-04-06T12:46:50;7.65;;;3.75;;
64401;SDS011;50724;42.376;23.768;2023-04-06T12:49:51;9.88;;;5.13;;
64401;SDS011;50724;42.376;23.768;2023-04-06T12:52:51;7.68;;;4.30;;
64401;SDS011;50724;42.376;23.768;2023-04-06T12:55:55;8.32;;;5.10;;
64401;SDS011;50724;42.376;23.768;2023-04-06T12:58:56;8.27;;;4.47;;
64401;SDS011;50724;42.376;23.768;2023-04-06T13:01:57;8.25;;;4.50;;
64401;SDS011;50724;42.376;23.768;2023-04-06T13:04:57;9.68;;;5.15;;
64401;SDS011;50724;42.376;23.768;2023-04-06T13:07:57;8.55;;;5.20;;
64401;SDS011;50724;42.376;23.768;2023-04-06T13:10:58;10.45;;;5.22;;
64401;SDS011;50724;42.376;23.768;2023-04-06T13:13:58;9.07;;;4.78;;
64401;SDS011;50724;42.376;23.768;2023-04-06T13:16:59;7.68;;;4.68;;
64401;SDS011;50724;42.376;23.768;2023-04-06T13:20:00;10.80;;;5.50;;
64401;SDS011;50724;42.376;23.768;2023-04-06T13:23:00;9.40;;;4.82;;
64401;SDS011;50724;42.376;23.768;2023-04-06T13:26:02;5.60;;;2.55;;
64401;SDS011;50724;42.376;23.768;2023-04-06T13:29:07;6.45;;;3.83;;
64401;SDS011;50724;42.376;23.768;2023-04-06T13:32:07;8.27;;;4.10;;
64401;SDS011;50724;42.376;23.768;2023-04-06T13:35:09;6.07;;;3.63;;
64401;SDS011;50724;42.376;23.768;2023-04-06T13:38:11;10.10;;;4.30;;
64401;SDS011;50724;42.376;23.768;2023-04-06T13:41:21;10.48;;;5.57;;
64401;SDS011;50724;42.376;23.768;2023-04-06T13:44:22;7.50;;;3.83;;
64401;SDS011;50724;42.376;23.768;2023-04-06T13:47:23;6.97;;;3.88;;
64401;SDS011;50724;42.376;23.768;2023-04-06T13:50:26;6.60;;;3.03;;
64401;SDS011;50724;42.376;23.768;2023-04-06T13:53:27;8.23;;;4.25;;
64401;SDS011;50724;42.376;23.768;2023-04-06T13:56:27;7.18;;;4.30;;
64401;SDS011;50724;42.376;23.768;2023-04-06T13:59:31;8.02;;;4.18;;
64401;SDS011;50724;42.376;23.768;2023-04-06T14:02:32;6.78;;;3.70;;
64401;SDS011;50724;42.376;23.768;2023-04-06T14:05:33;6.13;;;3.22;;
64401;SDS011;50724;42.376;23.768;2023-04-06T14:08:33;7.60;;;3.38;;
64401;SDS011;50724;42.376;23.768;2023-04-06T14:11:34;7.07;;;4.28;;
64401;SDS011;50724;42.376;23.768;2023-04-06T14:14:35;8.50;;;4.55;;
64401;SDS011;50724;42.376;23.768;2023-04-06T14:17:35;8.43;;;4.43;;
64401;SDS011;50724;42.376;23.768;2023-04-06T14:20:36;11.10;;;4.80;;
64401;SDS011;50724;42.376;23.768;2023-04-06T14:23:36;11.00;;;5.13;;
64401;SDS011;50724;42.376;23.768;2023-04-06T14:26:37;9.48;;;4.13;;
64401;SDS011;50724;42.376;23.768;2023-04-06T14:29:38;7.07;;;4.15;;
64401;SDS011;50724;42.376;23.768;2023-04-06T14:32:38;7.27;;;3.77;;
64401;SDS011;50724;42.376;23.768;2023-04-06T14:35:41;6.13;;;3.75;;
64401;SDS011;50724;42.376;23.768;2023-04-06T14:38:42;8.82;;;4.63;;
64401;SDS011;50724;42.376;23.768;2023-04-06T14:41:43;6.95;;;3.47;;
64401;SDS011;50724;42.376;23.768;2023-04-06T14:44:45;8.75;;;3.67;;
64401;SDS011;50724;42.376;23.768;2023-04-06T14:47:46;8.27;;;4.80;;
64401;SDS011;50724;42.376;23.768;2023-04-06T14:50:52;8.93;;;4.43;;
64401;SDS011;50724;42.376;23.768;2023-04-06T14:53:57;7.18;;;3.28;;
64401;SDS011;50724;42.376;23.768;2023-04-06T14:56:57;7.33;;;3.77;;
64401;SDS011;50724;42.376;23.768;2023-04-06T14:59:57;7.20;;;3.33;;
64401;SDS011;50724;42.376;23.768;2023-04-06T15:02:58;7.55;;;3.83;;
64401;SDS011;50724;42.376;23.768;2023-04-06T15:05:58;10.47;;;4.90;;
64401;SDS011;50724;42.376;23.768;2023-04-06T15:08:59;9.47;;;5.43;;
64401;SDS011;50724;42.376;23.768;2023-04-06T15:11:59;10.10;;;5.28;;
64401;SDS011;50724;42.376;23.768;2023-04-06T15:15:00;9.50;;;5.38;;
64401;SDS011;50724;42.376;23.768;2023-04-06T15:18:01;10.07;;;5.00;;
64401;SDS011;50724;42.376;23.768;2023-04-06T15:21:02;8.98;;;4.65;;
64401;SDS011;50724;42.376;23.768;2023-04-06T15:24:02;10.07;;;5.53;;
64401;SDS011;50724;42.376;23.768;2023-04-06T15:27:06;10.88;;;6.35;;
64401;SDS011;50724;42.376;23.768;2023-04-06T15:30:06;9.95;;;4.80;;
64401;SDS011;50724;42.376;23.768;2023-04-06T15:33:07;11.55;;;5.30;;
64401;SDS011;50724;42.376;23.768;2023-04-06T15:36:21;9.90;;;5.25;;
64401;SDS011;50724;42.376;23.768;2023-04-06T15:39:24;11.27;;;4.65;;
64401;SDS011;50724;42.376;23.768;2023-04-06T15:42:24;8.40;;;4.87;;
64401;SDS011;50724;42.376;23.768;2023-04-06T15:45:25;8.35;;;4.28;;
64401;SDS011;50724;42.376;23.768;2023-04-06T15:48:26;9.75;;;4.78;;
64401;SDS011;50724;42.376;23.768;2023-04-06T15:51:30;9.82;;;5.07;;
64401;SDS011;50724;42.376;23.768;2023-04-06T15:54:40;12.18;;;4.80;;
64401;SDS011;50724;42.376;23.768;2023-04-06T15:57:41;9.10;;;4.40;;
64401;SDS011;50724;42.376;23.768;2023-04-06T16:00:41;8.75;;;5.05;;
64401;SDS011;50724;42.376;23.768;2023-04-06T16:03:42;11.27;;;5.70;;
64401;SDS011;50724;42.376;23.768;2023-04-06T16:06:43;9.60;;;5.65;;
64401;SDS011;50724;42.376;23.768;2023-04-06T16:09:43;10.52;;;6.07;;
64401;SDS011;50724;42.376;23.768;2023-04-06T16:12:44;7.10;;;4.43;;
64401;SDS011;50724;42.376;23.768;2023-04-06T16:15:48;13.85;;;6.63;;
64401;SDS011;50724;42.376;23.768;2023-04-06T16:18:49;10.43;;;5.45;;
64401;SDS011;50724;42.376;23.768;2023-04-06T16:21:49;11.05;;;6.55;;
64401;SDS011;50724;42.376;23.768;2023-04-06T16:24:50;11.95;;;6.90;;
64401;SDS011;50724;42.376;23.768;2023-04-06T16:27:50;13.95;;;6.55;;
64401;SDS011;50724;42.376;23.768;2023-04-06T16:30:51;11.63;;;5.80;;
64401;SDS011;50724;42.376;23.768;2023-04-06T16:33:52;14.63;;;7.85;;
64401;SDS011;50724;42.376;23.768;2023-04-06T16:36:54;10.75;;;5.57;;
64401;SDS011;50724;42.376;23.768;2023-04-06T16:39:55;11.15;;;6.28;;
64401;SDS011;50724;42.376;23.768;2023-04-06T16:42:56;10.93;;;6.03;;
64401;SDS011;50724;42.376;23.768;2023-04-06T16:45:56;13.57;;;6.60;;
64401;SDS011;50724;42.376;23.768;2023-04-06T16:48:57;12.70;;;6.47;;
64401;SDS011;50724;42.376;23.768;2023-04-06T16:51:58;13.30;;;7.45;;
64401;SDS011;50724;42.376;23.768;2023-04-06T16:58:05;13.90;;;6.93;;
64401;SDS011;50724;42.376;23.768;2023-04-06T17:01:06;12.93;;;7.07;;
64401;SDS011;50724;42.376;23.768;2023-04-06T17:04:06;10.02;;;5.43;;
64401;SDS011;50724;42.376;23.768;2023-04-06T17:07:07;13.13;;;5.10;;
64401;SDS011;50724;42.376;23.768;2023-04-06T17:10:09;9.75;;;5.05;;
64401;SDS011;50724;42.376;23.768;2023-04-06T17:13:10;14.85;;;7.68;;
64401;SDS011;50724;42.376;23.768;2023-04-06T17:16:10;17.42;;;6.78;;
64401;SDS011;50724;42.376;23.768;2023-04-06T17:19:11;14.73;;;6.43;;
64401;SDS011;50724;42.376;23.768;2023-04-06T17:22:11;16.55;;;7.40;;
64401;SDS011;50724;42.376;23.768;2023-04-06T17:25:12;11.98;;;6.05;;
64401;SDS011;50724;42.376;23.768;2023-04-06T17:28:13;17.02;;;8.00;;
64401;SDS011;50724;42.376;23.768;2023-04-06T17:31:14;15.52;;;7.70;;
64401;SDS011;50724;42.376;23.768;2023-04-06T17:34:15;15.15;;;6.88;;
64401;SDS011;50724;42.376;23.768;2023-04-06T17:37:15;12.75;;;6.22;;
64401;SDS011;50724;42.376;23.768;2023-04-06T17:40:15;12.82;;;6.50;;
64401;SDS011;50724;42.376;23.768;2023-04-06T17:43:16;18.27;;;7.43;;
64401;SDS011;50724;42.376;23.768;2023-04-06T17:46:17;11.90;;;5.75;;
64401;SDS011;50724;42.376;23.768;2023-04-06T17:49:19;21.30;;;7.47;;
64401;SDS011;50724;42.376;23.768;2023-04-06T17:52:19;12.13;;;6.40;;
64401;SDS011;50724;42.376;23.768;2023-04-06T17:55:20;10.23;;;5.70;;
64401;SDS011;50724;42.376;23.768;2023-04-06T17:58:21;13.18;;;7.00;;
64401;SDS011;50724;42.376;23.768;2023-04-06T18:01:21;12.80;;;7.07;;
64401;SDS011;50724;42.376;23.768;2023-04-06T18:04:22;10.93;;;5.03;;
64401;SDS011;50724;42.376;23.768;2023-04-06T18:07:22;12.07;;;5.78;;
64401;SDS011;50724;42.376;23.768;2023-04-06T18:10:23;9.37;;;4.87;;
64401;SDS011;50724;42.376;23.768;2023-04-06T18:13:23;12.73;;;6.43;;